Time;durP1;ratioP1;P1;durP2;ratioP2;P2;SDS_P1;SDS_P2;PMS_P1;PMS_P2;Temp;Humidity;BMP_temperature;BMP_pressure;BME280_temperature;BME280_humidity;BME280_pressure;Samples;Min_cycle;Max_cycle;Signal;HPM_P1;HPM_P2
2022/10/04 00:00:09;;;;;;;6.10;3.90;;;10.50;99.90;;;;;;4984552;28;20452;-71
2022/10/04 00:02:35;;;;;;;9.50;4.80;;;10.40;99.90;;;;;;5002447;28;20468;-71
2022/10/04 00:05:07;;;;;;;8.10;4.80;;;10.40;99.90;;;;;;5021341;28;20451;-71
2022/10/04 00:07:51;;;;;;;4.87;4.13;;;10.40;99.90;;;;;;4991999;28;20464;-71
2022/10/04 00:10:21;;;;;;;4.53;4.03;;;10.40;99.90;;;;;;4989326;28;20905;-71
2022/10/04 00:12:54;;;;;;;6.70;4.50;;;10.40;99.90;;;;;;4997601;28;20471;-73
2022/10/04 00:15:31;;;;;;;7.23;4.47;;;10.40;99.90;;;;;;4993455;28;20466;-71
2022/10/04 00:18:10;;;;;;;7.33;5.10;;;10.30;99.90;;;;;;4996677;28;20838;-70
2022/10/04 00:20:49;;;;;;;11.73;4.53;;;10.30;99.90;;;;;;5006518;28;20460;-70
2022/10/04 00:23:24;;;;;;;10.30;4.57;;;10.30;99.90;;;;;;5015263;28;20463;-70
2022/10/04 00:25:57;;;;;;;7.07;4.07;;;10.30;99.90;;;;;;5020404;28;20467;-71
2022/10/04 00:28:23;;;;;;;5.43;4.20;;;10.20;99.90;;;;;;5012483;28;20471;-70
2022/10/04 00:31:13;;;;;;;4.00;3.30;;;10.10;99.90;;;;;;5009064;28;20479;-71
2022/10/04 00:33:50;;;;;;;5.90;4.00;;;10.10;99.90;;;;;;4999010;28;20307;-71
2022/10/04 00:36:25;;;;;;;5.30;3.60;;;10.10;99.90;;;;;;5002146;28;20448;-71
2022/10/04 00:39:05;;;;;;;5.83;4.30;;;10.10;99.90;;;;;;5020097;28;20450;-70
2022/10/04 00:41:48;;;;;;;5.90;4.27;;;9.90;99.90;;;;;;5009278;28;20574;-70
2022/10/04 00:44:22;;;;;;;4.23;3.83;;;9.90;99.90;;;;;;5009937;28;20465;-71
2022/10/04 00:46:50;;;;;;;5.33;3.43;;;10.00;99.90;;;;;;5001148;28;20963;-70
2022/10/04 00:49:21;;;;;;;4.60;4.10;;;10.00;99.90;;;;;;5003473;28;20468;-72
2022/10/04 00:51:56;;;;;;;7.30;4.70;;;10.00;99.90;;;;;;5014688;28;20979;-71
2022/10/04 00:54:27;;;;;;;4.93;3.47;;;10.00;99.90;;;;;;5014615;28;20506;-71
2022/10/04 00:57:02;;;;;;;9.73;4.53;;;10.00;99.90;;;;;;5003282;28;20460;-70
2022/10/04 00:59:40;;;;;;;4.77;3.67;;;9.90;99.90;;;;;;5008891;28;20975;-72
2022/10/04 01:02:16;;;;;;;9.73;3.90;;;9.90;99.90;;;;;;5008465;28;20491;-70
2022/10/04 01:05:02;;;;;;;4.07;3.67;;;9.90;99.90;;;;;;5022440;28;20820;-71
2022/10/04 01:07:48;;;;;;;5.43;4.03;;;9.90;99.90;;;;;;5014311;28;20491;-71
2022/10/04 01:10:27;;;;;;;5.57;3.70;;;9.70;99.90;;;;;;5009048;28;20887;-70
2022/10/04 01:13:15;;;;;;;4.30;3.90;;;9.70;99.90;;;;;;5007684;28;21007;-72
2022/10/04 01:15:49;;;;;;;4.03;3.63;;;9.70;99.90;;;;;;5014978;28;20887;-71
2022/10/04 01:18:18;;;;;;;5.30;3.80;;;9.70;99.90;;;;;;5015220;28;20460;-72
2022/10/04 01:20:57;;;;;;;5.23;4.40;;;9.70;99.90;;;;;;5014766;28;20462;-73
2022/10/04 01:23:41;;;;;;;5.00;3.20;;;9.70;99.90;;;;;;5025686;28;20455;-70
2022/10/04 01:26:28;;;;;;;6.17;4.47;;;9.70;99.90;;;;;;5013271;28;20464;-72
2022/10/04 01:28:58;;;;;;;4.33;3.93;;;9.70;99.90;;;;;;5006648;28;20993;-70
2022/10/04 01:31:29;;;;;;;4.90;3.60;;;9.70;99.90;;;;;;5024098;28;20537;-72
2022/10/04 01:33:55;;;;;;;7.73;3.57;;;9.70;99.90;;;;;;5009556;28;20550;-70
2022/10/04 01:36:21;;;;;;;8.30;4.23;;;9.70;99.90;;;;;;4989832;28;20547;-70
2022/10/04 01:38:48;;;;;;;6.10;4.10;;;9.70;99.90;;;;;;5014103;28;20463;-71
2022/10/04 01:41:17;;;;;;;7.13;4.40;;;9.60;99.90;;;;;;5023488;28;20308;-71
2022/10/04 01:43:49;;;;;;;4.73;3.57;;;9.60;99.90;;;;;;5020815;28;20842;-71
2022/10/04 01:46:32;;;;;;;5.63;3.47;;;9.60;99.90;;;;;;5005237;28;20468;-70
2022/10/04 01:49:03;;;;;;;7.87;3.77;;;9.60;99.90;;;;;;5005777;28;20983;-70
2022/10/04 01:51:33;;;;;;;5.20;4.53;;;9.60;99.90;;;;;;4989356;28;20474;-72
2022/10/04 01:54:10;;;;;;;4.03;3.37;;;9.50;99.90;;;;;;4992633;28;20467;-71
2022/10/04 01:56:46;;;;;;;6.13;3.63;;;9.60;99.90;;;;;;4996250;28;20456;-70
2022/10/04 01:59:18;;;;;;;5.63;4.57;;;9.60;99.90;;;;;;4995250;28;20456;-70
2022/10/04 02:02:00;;;;;;;4.97;4.27;;;9.50;99.90;;;;;;5019952;28;20452;-70
2022/10/04 02:04:33;;;;;;;12.40;4.33;;;9.50;99.90;;;;;;4987180;28;20464;-70
2022/10/04 02:07:00;;;;;;;6.80;4.17;;;9.50;99.90;;;;;;5008422;28;20539;-72
2022/10/04 02:09:33;;;;;;;10.47;4.60;;;9.50;99.90;;;;;;5009830;28;20448;-71
2022/10/04 02:11:59;;;;;;;6.10;4.50;;;9.50;99.90;;;;;;5007304;28;20915;-70
2022/10/04 02:14:31;;;;;;;4.47;3.93;;;9.40;99.90;;;;;;5004791;28;20464;-71
2022/10/04 02:17:00;;;;;;;5.90;4.10;;;9.30;99.90;;;;;;5018412;28;20467;-71
2022/10/04 02:19:34;;;;;;;4.20;3.67;;;9.30;99.90;;;;;;5013889;28;20487;-71
2022/10/04 02:22:02;;;;;;;3.83;3.17;;;9.30;99.90;;;;;;5005782;28;20474;-70
2022/10/04 02:24:32;;;;;;;5.20;3.27;;;9.30;99.90;;;;;;5002155;28;21001;-73
2022/10/04 02:26:58;;;;;;;8.30;4.57;;;9.30;99.90;;;;;;5007836;28;20506;-70
2022/10/04 02:29:25;;;;;;;6.83;4.47;;;9.30;99.90;;;;;;5004783;28;21008;-71
2022/10/04 02:34:36;;;;;;;4.67;3.60;;;9.10;99.90;;;;;;5001324;28;20476;-70
2022/10/04 02:37:04;;;;;;;6.40;4.13;;;9.10;99.90;;;;;;5007673;28;20463;-71
2022/10/04 02:39:38;;;;;;;5.60;4.30;;;9.20;99.90;;;;;;4989372;28;20468;-71
2022/10/04 02:42:36;;;;;;;6.93;4.00;;;9.20;99.90;;;;;;5008476;28;20456;-72
2022/10/04 02:45:19;;;;;;;5.53;3.60;;;9.20;99.90;;;;;;5005266;28;20460;-73
2022/10/04 02:47:50;;;;;;;5.60;3.80;;;9.20;99.90;;;;;;5006579;28;20501;-70
2022/10/04 02:50:50;;;;;;;5.60;3.70;;;9.20;99.90;;;;;;5002696;28;20468;-70
2022/10/04 02:53:36;;;;;;;6.23;4.20;;;9.10;99.90;;;;;;5006264;28;20560;-71
2022/10/04 02:56:02;;;;;;;6.70;4.73;;;9.00;99.90;;;;;;5023135;28;20472;-69
2022/10/04 02:58:29;;;;;;;9.57;5.27;;;9.00;99.90;;;;;;5005205;28;20456;-72
2022/10/04 03:00:57;;;;;;;8.03;5.90;;;9.00;99.90;;;;;;4992038;28;20572;-72
2022/10/04 03:03:27;;;;;;;6.70;4.57;;;9.00;99.90;;;;;;4986368;28;20496;-72
2022/10/04 03:06:11;;;;;;;6.47;4.33;;;9.00;99.90;;;;;;4994093;28;20504;-71
2022/10/04 03:08:48;;;;;;;8.53;4.90;;;9.00;99.90;;;;;;5002894;28;20487;-70
2022/10/04 03:11:16;;;;;;;5.80;4.73;;;9.00;99.90;;;;;;5003588;28;20505;-71
2022/10/04 03:13:50;;;;;;;8.27;4.80;;;9.00;99.90;;;;;;4989569;28;20529;-71
2022/10/04 03:16:15;;;;;;;7.07;4.70;;;9.00;99.90;;;;;;5005653;28;20484;-70
2022/10/04 03:18:43;;;;;;;9.87;5.00;;;9.00;99.90;;;;;;4994353;28;20552;-72
2022/10/04 03:21:13;;;;;;;6.33;4.63;;;9.00;99.90;;;;;;5008281;28;20312;-71
2022/10/04 03:23:39;;;;;;;9.33;5.90;;;8.90;99.90;;;;;;5007821;28;20457;-72
2022/10/04 03:26:24;;;;;;;7.57;4.97;;;8.90;99.90;;;;;;4993963;28;20464;-71
2022/10/04 03:28:51;;;;;;;8.80;5.40;;;8.90;99.90;;;;;;5008280;28;20448;-70
2022/10/04 03:31:18;;;;;;;8.67;5.07;;;8.90;99.90;;;;;;5005781;28;20452;-70
2022/10/04 03:33:45;;;;;;;7.07;4.70;;;8.90;99.90;;;;;;5009227;28;20472;-72
2022/10/04 03:36:17;;;;;;;7.30;5.13;;;8.90;99.90;;;;;;5010822;28;20458;-71
2022/10/04 03:38:45;;;;;;;6.50;5.10;;;8.80;99.90;;;;;;5006260;28;20460;-69
2022/10/04 03:41:12;;;;;;;7.17;4.33;;;8.80;99.90;;;;;;4991822;28;20464;-73
2022/10/04 03:43:45;;;;;;;4.77;3.53;;;8.80;99.90;;;;;;5002178;28;20835;-70
2022/10/04 03:46:13;;;;;;;4.70;3.77;;;8.80;99.90;;;;;;5003161;28;20482;-72
2022/10/04 03:48:44;;;;;;;5.37;3.93;;;8.80;99.90;;;;;;4988229;28;20618;-72
2022/10/04 03:51:18;;;;;;;4.97;3.60;;;8.80;99.90;;;;;;5005374;28;20456;-73
2022/10/04 03:53:48;;;;;;;3.93;3.03;;;8.80;99.90;;;;;;5008170;28;20464;-73
2022/10/04 03:56:26;;;;;;;5.40;3.60;;;8.80;99.90;;;;;;5003219;28;20464;-70
2022/10/04 03:58:53;;;;;;;5.10;3.90;;;8.80;99.90;;;;;;5011263;28;20486;-71
2022/10/04 04:01:57;;;;;;;4.73;3.70;;;8.80;99.90;;;;;;5006383;28;20487;-71
2022/10/04 04:05:06;;;;;;;8.43;4.90;;;8.80;99.90;;;;;;4967661;28;20484;-71
2022/10/04 04:07:38;;;;;;;8.67;5.87;;;8.70;99.90;;;;;;5006481;28;20459;-72
2022/10/04 04:10:22;;;;;;;8.00;5.63;;;8.70;99.90;;;;;;4991861;28;20454;-70
2022/10/04 04:13:15;;;;;;;7.03;4.33;;;8.70;99.90;;;;;;4998280;28;20476;-70
2022/10/04 04:15:42;;;;;;;7.67;5.43;;;8.70;99.90;;;;;;4998162;28;20457;-69
2022/10/04 04:18:28;;;;;;;4.13;3.73;;;8.70;99.90;;;;;;5003019;28;20461;-72
2022/10/04 04:20:57;;;;;;;7.57;4.60;;;8.70;99.90;;;;;;5002726;28;20472;-71
2022/10/04 04:23:31;;;;;;;9.60;4.97;;;8.70;99.90;;;;;;5002284;28;20460;-73
2022/10/04 04:26:16;;;;;;;6.33;4.57;;;8.70;99.90;;;;;;4985933;28;20465;-71
2022/10/04 04:28:47;;;;;;;7.63;5.27;;;8.70;99.90;;;;;;5010115;28;20499;-72
2022/10/04 04:31:22;;;;;;;5.30;4.07;;;8.70;99.90;;;;;;5001238;28;20526;-69
2022/10/04 04:33:50;;;;;;;8.90;5.23;;;8.70;99.90;;;;;;5007382;28;20548;-72
2022/10/04 04:36:16;;;;;;;9.53;5.80;;;8.70;99.90;;;;;;5009090;28;20463;-72
2022/10/04 04:41:30;;;;;;;7.07;5.13;;;8.70;99.90;;;;;;5022083;28;20302;-71
2022/10/04 04:43:57;;;;;;;6.43;4.90;;;8.70;99.90;;;;;;5003862;28;20521;-70
2022/10/04 04:46:23;;;;;;;13.70;5.60;;;8.70;99.90;;;;;;4983562;28;20476;-70
2022/10/04 04:48:54;;;;;;;6.30;5.10;;;8.70;99.90;;;;;;4987296;28;20468;-71
2022/10/04 04:51:23;;;;;;;7.23;4.90;;;8.70;99.90;;;;;;4999765;28;20499;-72
2022/10/04 04:53:51;;;;;;;5.80;4.17;;;8.70;99.90;;;;;;5004731;28;20491;-72
2022/10/04 04:56:20;;;;;;;8.00;5.10;;;8.70;99.90;;;;;;5005959;28;20483;-72
2022/10/04 04:58:48;;;;;;;5.93;4.10;;;8.60;99.90;;;;;;5030541;28;20447;-72
2022/10/04 05:01:22;;;;;;;7.90;4.60;;;8.60;99.90;;;;;;4996189;28;20475;-72
2022/10/04 05:04:14;;;;;;;5.30;4.43;;;8.60;99.90;;;;;;5003605;28;20460;-71
2022/10/04 05:06:41;;;;;;;7.87;5.00;;;8.60;99.90;;;;;;5007352;28;20448;-71
2022/10/04 05:09:28;;;;;;;7.20;4.67;;;8.60;99.90;;;;;;4996897;28;20483;-72
2022/10/04 05:12:14;;;;;;;6.00;4.07;;;8.60;99.90;;;;;;5016443;28;20559;-72
2022/10/04 05:14:46;;;;;;;7.40;4.53;;;8.60;99.90;;;;;;4987941;28;20465;-72
2022/10/04 05:17:30;;;;;;;5.77;4.70;;;8.60;99.90;;;;;;4997479;28;20464;-72
2022/10/04 05:19:59;;;;;;;6.80;3.57;;;8.60;99.90;;;;;;5008121;28;20459;-71
2022/10/04 05:22:27;;;;;;;6.00;4.10;;;8.60;99.90;;;;;;5010004;28;20461;-72
2022/10/04 05:25:14;;;;;;;6.23;4.10;;;8.60;99.90;;;;;;4988578;28;20485;-72
2022/10/04 05:27:43;;;;;;;6.43;4.60;;;8.60;99.90;;;;;;5001609;28;20499;-71
2022/10/04 05:30:28;;;;;;;7.80;4.60;;;8.60;99.90;;;;;;5015817;28;20486;-70
2022/10/04 05:32:53;;;;;;;8.97;5.50;;;8.60;99.90;;;;;;5014418;28;20528;-72
2022/10/04 05:35:21;;;;;;;6.13;4.63;;;8.50;99.90;;;;;;5010288;28;20460;-72
2022/10/04 05:38:15;;;;;;;6.70;4.10;;;8.50;99.90;;;;;;5015117;28;20221;-72
2022/10/04 05:40:40;;;;;;;6.60;4.03;;;8.50;99.90;;;;;;4998184;28;20456;-73
2022/10/04 05:43:28;;;;;;;8.50;4.60;;;8.50;99.90;;;;;;5016052;28;20487;-72
2022/10/04 05:46:33;;;;;;;7.20;4.70;;;8.50;99.90;;;;;;5002222;28;20220;-72
2022/10/04 05:49:12;;;;;;;6.20;4.70;;;8.50;99.90;;;;;;5001249;28;20473;-72
2022/10/04 05:51:59;;;;;;;7.53;5.03;;;8.50;99.90;;;;;;5011321;28;20572;-72
2022/10/04 05:54:33;;;;;;;8.00;4.47;;;8.40;99.90;;;;;;4998863;28;20463;-71
2022/10/04 05:57:18;;;;;;;5.30;4.30;;;8.40;99.90;;;;;;5023361;28;20490;-74
2022/10/04 06:00:00;;;;;;;8.83;5.20;;;8.40;99.90;;;;;;4988217;28;20850;-72
2022/10/04 06:02:40;;;;;;;4.60;3.80;;;8.40;99.90;;;;;;5012249;28;20451;-72
2022/10/04 06:05:24;;;;;;;7.00;4.00;;;8.40;99.90;;;;;;5006734;28;20489;-70
2022/10/04 06:08:04;;;;;;;8.83;5.63;;;8.40;99.90;;;;;;5011223;28;20641;-72
2022/10/04 06:11:14;;;;;;;8.30;5.80;;;8.40;99.90;;;;;;5008556;28;20471;-72
2022/10/04 06:13:58;;;;;;;8.73;6.33;;;8.40;99.90;;;;;;4978528;28;20467;-71
2022/10/04 06:16:24;;;;;;;8.40;5.77;;;8.40;99.90;;;;;;4989717;28;20441;-73
2022/10/04 06:19:25;;;;;;;7.23;5.90;;;8.40;99.90;;;;;;5016002;28;20456;-72
2022/10/04 06:22:17;;;;;;;6.50;5.00;;;8.40;99.90;;;;;;4984352;28;20290;-71
2022/10/04 06:24:55;;;;;;;6.73;4.73;;;8.40;99.90;;;;;;5014576;28;20459;-72
2022/10/04 06:27:40;;;;;;;5.43;4.23;;;8.40;99.90;;;;;;4992919;28;20455;-70
2022/10/04 06:30:13;;;;;;;6.33;4.37;;;8.40;99.90;;;;;;5008910;28;20534;-72
2022/10/04 06:33:04;;;;;;;4.37;3.70;;;8.40;99.90;;;;;;5003353;28;20495;-72
2022/10/04 06:35:52;;;;;;;7.40;4.73;;;8.40;99.90;;;;;;5000363;28;20457;-72
2022/10/04 06:38:21;;;;;;;5.20;3.90;;;8.40;99.90;;;;;;5005824;28;20460;-73
2022/10/04 06:40:46;;;;;;;5.27;4.20;;;8.40;99.90;;;;;;5010570;28;20491;-72
2022/10/04 06:43:27;;;;;;;6.90;4.67;;;8.40;99.90;;;;;;5021690;28;20509;-72
2022/10/04 06:46:15;;;;;;;4.30;3.87;;;8.30;99.90;;;;;;5016267;28;20220;-72
2022/10/04 06:49:21;;;;;;;4.30;3.13;;;8.30;99.90;;;;;;5011472;28;20467;-72
2022/10/04 06:52:05;;;;;;;4.50;3.40;;;8.30;99.90;;;;;;5003081;28;20487;-72
2022/10/04 06:54:36;;;;;;;5.33;3.67;;;8.30;99.90;;;;;;4990228;28;20560;-72
2022/10/04 06:57:05;;;;;;;4.27;3.87;;;8.30;99.90;;;;;;5012118;28;20464;-72
2022/10/04 06:59:51;;;;;;;4.73;3.50;;;8.30;99.90;;;;;;5012479;28;20479;-72
2022/10/04 07:02:45;;;;;;;5.97;4.27;;;8.30;99.90;;;;;;5019419;28;20469;-72
2022/10/04 07:05:44;;;;;;;6.63;3.80;;;8.40;99.90;;;;;;5024100;28;20455;-72
2022/10/04 07:08:29;;;;;;;5.30;3.90;;;8.40;99.90;;;;;;5001114;28;20455;-72
2022/10/04 07:11:16;;;;;;;9.77;4.60;;;8.40;99.90;;;;;;5009314;28;20522;-72
2022/10/04 07:14:07;;;;;;;4.50;3.60;;;8.40;99.90;;;;;;5008385;28;20467;-72
2022/10/04 07:16:44;;;;;;;6.47;4.70;;;8.40;99.90;;;;;;5012992;28;20481;-74
2022/10/04 07:19:19;;;;;;;5.73;4.60;;;8.40;99.90;;;;;;5011452;28;20449;-72
2022/10/04 07:21:48;;;;;;;6.50;4.27;;;8.40;99.90;;;;;;5002098;28;20467;-73
2022/10/04 07:24:24;;;;;;;6.23;5.27;;;8.40;99.90;;;;;;4992518;28;20884;-72
2022/10/04 07:26:53;;;;;;;10.33;4.63;;;8.50;99.90;;;;;;5010328;28;20448;-72
2022/10/04 07:29:30;;;;;;;5.40;4.57;;;8.50;99.90;;;;;;4999950;28;21038;-71
2022/10/04 07:32:16;;;;;;;6.60;4.30;;;8.50;99.90;;;;;;4993254;28;20554;-72
2022/10/04 07:34:51;;;;;;;7.63;4.70;;;8.60;99.90;;;;;;4981588;28;20467;-70
2022/10/04 07:37:19;;;;;;;6.50;4.03;;;8.60;99.90;;;;;;4993856;28;20510;-71
2022/10/04 07:39:49;;;;;;;4.43;3.50;;;8.60;99.90;;;;;;5008464;28;20470;-71
2022/10/04 07:42:38;;;;;;;5.20;4.50;;;8.70;99.90;;;;;;4990674;28;20526;-72
2022/10/04 07:45:18;;;;;;;5.00;4.07;;;8.70;99.90;;;;;;5006300;28;20578;-71
2022/10/04 07:47:44;;;;;;;4.40;3.87;;;8.70;99.90;;;;;;5004394;28;20546;-71
2022/10/04 07:50:30;;;;;;;5.37;4.10;;;8.80;99.90;;;;;;4984075;28;20473;-70
2022/10/04 07:53:28;;;;;;;5.27;3.97;;;8.80;99.90;;;;;;5009191;28;20486;-72
2022/10/04 07:56:25;;;;;;;4.27;3.57;;;8.90;99.90;;;;;;4980529;28;20463;-71
2022/10/04 07:59:28;;;;;;;5.67;3.60;;;8.90;99.90;;;;;;5001246;28;20475;-70
2022/10/04 08:02:15;;;;;;;5.80;3.73;;;9.00;99.90;;;;;;5007647;28;20833;-70
2022/10/04 08:05:03;;;;;;;6.17;3.70;;;9.00;99.90;;;;;;5016768;28;21025;-72
2022/10/04 08:07:56;;;;;;;6.83;4.20;;;9.00;99.90;;;;;;5008301;28;20464;-72
2022/10/04 08:10:31;;;;;;;6.63;4.40;;;9.10;99.90;;;;;;5001241;28;20475;-72
2022/10/04 08:13:04;;;;;;;6.77;4.50;;;9.10;99.90;;;;;;5009379;28;20570;-70
2022/10/04 08:15:39;;;;;;;5.87;3.80;;;9.20;99.90;;;;;;4992563;28;20514;-71
2022/10/04 08:18:05;;;;;;;5.70;4.20;;;9.20;99.90;;;;;;4994128;28;20494;-71
2022/10/04 08:20:34;;;;;;;6.87;4.60;;;9.20;99.90;;;;;;5009341;28;20508;-71
2022/10/04 08:23:05;;;;;;;12.40;5.20;;;9.30;99.90;;;;;;5013010;28;20229;-73
2022/10/04 08:25:56;;;;;;;6.90;4.60;;;9.30;99.90;;;;;;4977485;28;20491;-70
2022/10/04 08:32:05;;;;;;;6.00;4.40;;;9.40;99.90;;;;;;5004737;28;20551;-72
2022/10/04 08:34:37;;;;;;;9.03;4.97;;;9.50;99.90;;;;;;5020621;28;20519;-72
2022/10/04 08:37:20;;;;;;;7.10;4.37;;;9.60;99.90;;;;;;5015730;28;20530;-72
2022/10/04 08:40:19;;;;;;;8.47;4.80;;;9.60;99.90;;;;;;5013031;28;20473;-72
2022/10/04 08:42:57;;;;;;;9.03;5.50;;;9.70;99.90;;;;;;4992838;28;20467;-71
2022/10/04 08:45:44;;;;;;;6.90;4.70;;;9.70;99.90;;;;;;5013318;28;20462;-73
2022/10/04 08:48:31;;;;;;;10.53;5.37;;;9.80;99.90;;;;;;5015225;28;20459;-71
2022/10/04 08:51:19;;;;;;;10.73;5.57;;;9.90;99.90;;;;;;4998418;28;20955;-70
2022/10/04 08:53:47;;;;;;;7.50;5.87;;;9.90;99.90;;;;;;5004171;28;20477;-72
2022/10/04 08:56:32;;;;;;;9.97;5.60;;;10.00;99.90;;;;;;4988880;28;20550;-71
2022/10/04 08:59:06;;;;;;;11.63;6.20;;;10.00;99.90;;;;;;5023208;28;20986;-73
2022/10/04 09:01:49;;;;;;;8.77;5.77;;;10.10;99.90;;;;;;5013036;28;20508;-73
2022/10/04 09:04:56;;;;;;;7.07;5.43;;;10.20;99.90;;;;;;5009830;28;20460;-72
2022/10/04 09:07:56;;;;;;;7.20;5.70;;;10.20;99.90;;;;;;4996141;28;20457;-70
2022/10/04 09:10:25;;;;;;;14.97;5.03;;;10.30;99.90;;;;;;4996877;28;20963;-71
2022/10/04 09:13:21;;;;;;;12.17;7.67;;;10.40;99.90;;;;;;5013606;28;20479;-71
2022/10/04 09:15:55;;;;;;;8.20;5.53;;;10.50;99.90;;;;;;5001864;28;20559;-72
2022/10/04 09:18:58;;;;;;;9.90;6.10;;;10.50;99.90;;;;;;5019783;28;20489;-73
2022/10/04 09:21:48;;;;;;;11.53;6.10;;;10.60;99.90;;;;;;5018125;28;20464;-70
2022/10/04 09:24:35;;;;;;;8.70;6.10;;;10.70;99.90;;;;;;4993841;28;20585;-73
2022/10/04 09:27:35;;;;;;;11.63;7.20;;;10.80;99.90;;;;;;5011126;28;20458;-71
2022/10/04 09:30:20;;;;;;;9.10;6.57;;;10.80;99.90;;;;;;4996146;28;20515;-71
2022/10/04 09:33:20;;;;;;;12.20;6.47;;;11.00;99.90;;;;;;5011696;28;20840;-73
2022/10/04 09:35:55;;;;;;;12.60;6.77;;;11.10;99.90;;;;;;5030553;28;20458;-73
2022/10/04 09:38:40;;;;;;;9.63;6.00;;;11.20;99.90;;;;;;5017658;28;20463;-71
2022/10/04 09:41:33;;;;;;;11.50;6.97;;;11.30;99.90;;;;;;5014162;28;20452;-72
2022/10/04 09:44:32;;;;;;;9.57;6.60;;;11.30;99.90;;;;;;5008545;28;20832;-71
2022/10/04 09:46:58;;;;;;;8.40;6.47;;;11.30;99.90;;;;;;5015263;28;20522;-72
2022/10/04 09:49:36;;;;;;;8.97;7.00;;;11.40;99.90;;;;;;5002344;28;20871;-72
2022/10/04 09:52:27;;;;;;;8.90;6.70;;;11.50;99.90;;;;;;5017596;28;20486;-70
2022/10/04 09:54:58;;;;;;;11.10;8.00;;;11.50;99.90;;;;;;5010720;28;20451;-73
2022/10/04 09:57:29;;;;;;;10.97;8.90;;;11.50;99.90;;;;;;5011660;28;20575;-72
2022/10/04 10:00:24;;;;;;;9.27;6.73;;;11.60;99.90;;;;;;5007656;28;20456;-72
2022/10/04 10:03:16;;;;;;;12.47;8.37;;;11.70;99.90;;;;;;5015844;28;20550;-71
2022/10/04 10:06:12;;;;;;;13.87;8.33;;;11.70;99.90;;;;;;5002356;28;20456;-71
2022/10/04 10:09:06;;;;;;;19.10;11.30;;;11.70;99.90;;;;;;5009284;28;20531;-70
2022/10/04 10:14:47;;;;;;;25.53;14.30;;;11.80;99.90;;;;;;5010388;28;20972;-73
2022/10/04 10:17:36;;;;;;;21.30;12.13;;;11.90;99.90;;;;;;4992952;28;20488;-71
2022/10/04 10:20:25;;;;;;;13.07;8.70;;;12.00;99.90;;;;;;5022645;28;20451;-70
2022/10/04 10:23:09;;;;;;;13.33;8.50;;;12.00;99.90;;;;;;4995113;28;20467;-73
2022/10/04 10:26:11;;;;;;;12.10;8.40;;;12.10;99.90;;;;;;5010887;28;20458;-71
2022/10/04 10:28:46;;;;;;;12.57;6.87;;;12.10;99.90;;;;;;4992887;28;20471;-72
2022/10/04 10:32:03;;;;;;;18.17;9.27;;;12.20;99.90;;;;;;5005441;28;20527;-72
2022/10/04 10:34:47;;;;;;;32.97;18.17;;;12.20;99.90;;;;;;4978731;28;20460;-72
2022/10/04 10:37:33;;;;;;;23.50;15.23;;;12.40;99.90;;;;;;4981566;28;20544;-73
2022/10/04 10:40:07;;;;;;;15.07;10.60;;;12.50;99.90;;;;;;4987247;28;20865;-72
2022/10/04 10:42:50;;;;;;;16.23;8.93;;;12.60;99.90;;;;;;5023319;28;20956;-73
2022/10/04 10:45:42;;;;;;;14.40;8.43;;;12.60;99.90;;;;;;5006761;28;20448;-74
2022/10/04 10:48:26;;;;;;;14.43;8.00;;;12.70;99.90;;;;;;5002598;28;21043;-72
2022/10/04 10:51:19;;;;;;;12.20;7.37;;;12.70;99.90;;;;;;5014829;28;20463;-70
2022/10/04 10:53:45;;;;;;;13.53;8.10;;;12.80;99.90;;;;;;4984183;28;20457;-73
2022/10/04 10:56:27;;;;;;;14.80;8.60;;;12.90;99.90;;;;;;5016237;28;20460;-73
2022/10/04 10:59:11;;;;;;;18.27;9.70;;;12.90;99.90;;;;;;5014180;28;20216;-73
2022/10/04 11:01:59;;;;;;;9.80;7.70;;;13.00;99.90;;;;;;5005413;28;20484;-73
2022/10/04 11:04:53;;;;;;;12.40;7.80;;;13.10;99.90;;;;;;5001551;28;20988;-73
2022/10/04 11:07:51;;;;;;;12.33;8.77;;;13.10;99.90;;;;;;5007352;28;20460;-73
2022/10/04 11:10:52;;;;;;;11.20;7.30;;;13.10;99.90;;;;;;4994020;28;20447;-73
2022/10/04 11:13:27;;;;;;;11.07;6.30;;;13.20;99.90;;;;;;4996597;28;20471;-73
2022/10/04 11:16:20;;;;;;;10.63;7.40;;;13.20;99.90;;;;;;5025534;28;20447;-70
2022/10/04 11:19:07;;;;;;;8.70;6.07;;;13.30;99.90;;;;;;5027929;28;20460;-72
2022/10/04 11:21:54;;;;;;;15.37;7.53;;;13.40;99.90;;;;;;5020377;28;20462;-70
2022/10/04 11:24:29;;;;;;;10.87;7.20;;;13.60;99.90;;;;;;5011661;28;20496;-73
2022/10/04 11:27:29;;;;;;;12.73;6.90;;;13.70;99.90;;;;;;5007123;28;20459;-72
2022/10/04 11:30:09;;;;;;;14.13;6.90;;;13.90;99.90;;;;;;5008290;28;20522;-73
2022/10/04 11:32:58;;;;;;;11.50;7.40;;;14.10;99.90;;;;;;5010120;28;20545;-72
2022/10/04 11:35:35;;;;;;;7.37;5.70;;;14.20;99.90;;;;;;5016754;28;20456;-73
2022/10/04 11:38:26;;;;;;;9.63;6.57;;;14.30;99.90;;;;;;5005368;28;20562;-73
2022/10/04 11:41:09;;;;;;;8.77;6.70;;;14.40;99.90;;;;;;5012216;28;20463;-72
2022/10/04 11:43:51;;;;;;;13.60;6.93;;;14.40;99.90;;;;;;5008117;28;20488;-73
2022/10/04 11:46:42;;;;;;;9.20;6.40;;;14.60;99.90;;;;;;5017556;28;20459;-73
2022/10/04 11:49:49;;;;;;;9.43;6.57;;;14.60;99.90;;;;;;5003433;28;20451;-71
2022/10/04 11:52:52;;;;;;;10.07;6.30;;;14.70;99.90;;;;;;5007027;28;20486;-72
2022/10/04 11:55:33;;;;;;;11.40;7.50;;;14.90;99.90;;;;;;5012780;28;20467;-72
2022/10/04 11:58:01;;;;;;;8.57;6.67;;;14.90;99.90;;;;;;5014558;28;20463;-74
2022/10/04 12:00:45;;;;;;;8.67;6.13;;;15.00;99.90;;;;;;5012689;28;20459;-71
2022/10/04 12:03:38;;;;;;;9.90;7.47;;;15.20;99.90;;;;;;4998855;28;20984;-73
2022/10/04 12:06:37;;;;;;;9.53;8.00;;;15.20;99.90;;;;;;5024693;28;20476;-71
2022/10/04 12:09:06;;;;;;;11.30;8.00;;;15.20;99.90;;;;;;5010655;28;20477;-73
2022/10/04 12:14:39;;;;;;;7.03;5.80;;;15.30;99.90;;;;;;5012555;28;20559;-73
2022/10/04 12:17:29;;;;;;;14.73;7.30;;;15.40;99.90;;;;;;4994511;28;20990;-72
2022/10/04 12:20:27;;;;;;;8.10;5.70;;;15.50;99.90;;;;;;4984358;28;20441;-72
2022/10/04 12:23:19;;;;;;;10.73;5.33;;;15.60;99.90;;;;;;4994730;28;20457;-72
2022/10/04 12:26:06;;;;;;;7.50;5.30;;;15.60;99.90;;;;;;5009414;28;20454;-73
2022/10/04 12:28:38;;;;;;;8.70;6.10;;;15.80;99.90;;;;;;5009701;28;20468;-72
2022/10/04 12:31:06;;;;;;;5.70;5.10;;;15.90;99.90;;;;;;5006120;28;20498;-71
2022/10/04 12:33:33;;;;;;;7.40;6.10;;;15.90;99.90;;;;;;4994722;28;20528;-73
2022/10/04 12:35:58;;;;;;;5.47;4.90;;;16.00;99.90;;;;;;5011576;28;20540;-73
2022/10/04 12:38:36;;;;;;;9.13;5.83;;;16.10;99.90;;;;;;5008865;28;20519;-72
2022/10/04 12:41:35;;;;;;;9.83;5.23;;;16.10;99.90;;;;;;5008730;28;20224;-73
2022/10/04 12:44:28;;;;;;;8.20;5.43;;;16.10;99.90;;;;;;4995178;28;20494;-73
2022/10/04 12:47:31;;;;;;;14.83;5.50;;;16.10;99.90;;;;;;5026919;28;20500;-73
2022/10/04 12:50:24;;;;;;;6.17;5.20;;;16.20;99.90;;;;;;4996369;28;20460;-73
2022/10/04 12:53:20;;;;;;;8.90;6.50;;;16.30;99.90;;;;;;5008265;28;20496;-74
2022/10/04 12:56:03;;;;;;;10.50;5.27;;;16.20;99.90;;;;;;5008312;28;20472;-74
2022/10/04 12:59:08;;;;;;;6.40;5.30;;;16.10;99.90;;;;;;4995185;28;20449;-73
2022/10/04 13:01:36;;;;;;;8.63;5.10;;;16.00;99.90;;;;;;5005723;28;20448;-73
2022/10/04 13:04:10;;;;;;;5.77;4.93;;;16.10;99.90;;;;;;5015915;28;20974;-73
2022/10/04 13:07:02;;;;;;;8.20;6.20;;;16.20;99.90;;;;;;5011606;28;20455;-74
2022/10/04 13:09:59;;;;;;;7.83;5.57;;;16.20;99.90;;;;;;5024772;28;20510;-73
2022/10/04 13:12:43;;;;;;;9.20;5.30;;;16.50;99.90;;;;;;5029699;28;20566;-73
2022/10/04 13:15:22;;;;;;;10.43;5.67;;;16.60;99.90;;;;;;4996241;28;20464;-73
2022/10/04 13:18:17;;;;;;;8.03;5.17;;;16.70;99.90;;;;;;5010293;28;20537;-73
2022/10/04 13:20:57;;;;;;;6.77;5.03;;;16.70;99.90;;;;;;5016024;28;20448;-73
2022/10/04 13:23:29;;;;;;;11.23;6.40;;;16.80;99.90;;;;;;4998084;28;20549;-72
2022/10/04 13:25:58;;;;;;;10.70;6.27;;;16.90;99.90;;;;;;5004581;28;20460;-73
2022/10/04 13:28:26;;;;;;;9.97;6.53;;;17.00;99.90;;;;;;5017774;28;20451;-72
2022/10/04 13:31:09;;;;;;;8.03;5.50;;;16.90;99.90;;;;;;5018585;28;20448;-73
2022/10/04 13:33:47;;;;;;;8.30;6.10;;;16.90;99.90;;;;;;5009193;28;20527;-74
2022/10/04 13:36:37;;;;;;;7.47;5.93;;;16.80;99.90;;;;;;5021630;28;20517;-73
2022/10/04 13:39:28;;;;;;;8.20;6.60;;;16.80;99.90;;;;;;5011043;28;20535;-72
2022/10/04 13:42:24;;;;;;;8.97;6.50;;;16.90;99.90;;;;;;5017738;28;20449;-73
2022/10/04 13:45:30;;;;;;;7.50;6.33;;;17.00;99.90;;;;;;4998847;28;20518;-73
2022/10/04 13:48:29;;;;;;;9.70;6.50;;;17.10;99.90;;;;;;5008011;28;20458;-73
2022/10/04 13:51:22;;;;;;;9.57;6.73;;;17.20;99.90;;;;;;5017343;28;20459;-73
2022/10/04 13:57:08;;;;;;;9.23;6.57;;;17.30;99.90;;;;;;5007965;28;20551;-71
2022/10/04 13:59:47;;;;;;;10.30;6.03;;;17.40;99.90;;;;;;5020313;28;20448;-73
2022/10/04 14:02:38;;;;;;;8.70;6.67;;;17.40;99.90;;;;;;5012671;28;20442;-71
2022/10/04 14:05:09;;;;;;;10.77;7.37;;;17.40;99.90;;;;;;4996374;28;20913;-73
2022/10/04 14:08:02;;;;;;;9.50;6.40;;;17.30;99.90;;;;;;5016564;28;20492;-73
2022/10/04 14:10:55;;;;;;;10.90;7.33;;;17.30;99.90;;;;;;5016606;28;20461;-73
2022/10/04 14:14:00;;;;;;;8.13;6.20;;;17.30;99.90;;;;;;5013626;28;21029;-74
2022/10/04 14:17:11;;;;;;;11.47;7.73;;;17.40;99.90;;;;;;5011119;28;20481;-73